»·PEaware :: AAL214 KABQ-KCOS

AAL214 :: KABQ-KCOS

FLIGHT INFORMATION

Flight Status: Arrived
Operator:
American Airlines
More flights by this operator :: More flights under this callsign
Pilot: Jim V. (20680)
Aircraft: BOEING 737-800
(B738)
More flights by this aircraft type
Origin: KABQ Albuquerque Intl Sunport
United States
Destination: KCOS City Of Colorado Springs Mun
United States
More flights between these airports :: More routes between these airports
Route: +FLOOD DBRY3
File this flight plan on PilotEdge
Remarks:
Altitude:
(Current/Filed)
30,000ft
Speed:
(Current/Filed)
455kts
Departed: 14-Jan-20 06:07 PM
Arrived: 14-Jan-20 06:56 PM
Distance/Time
Traveled:
243nm/0:49
Distance/Time
To Go:
Arrived

Flight Plot

Page will automatically refresh every two minutes.

Flight plan parsing failed; only flown route is shown


Map Options




Map Legend


Flown Route
Filed Route
Departure Airport
Arrival Airport
Navaid (VOR, NDB)
Fix

Horizontal Profiles

Position Reports

Time Latitude Longitude Heading Altitude Ground
Speed
14-Jan-20 17:50 35.048841 -106.618311 15 5307ft 0kts
14-Jan-20 17:51 35.048841 -106.618311 15 5307ft 0kts
14-Jan-20 17:52 35.048841 -106.618311 15 5307ft 0kts
14-Jan-20 17:53 35.048841 -106.618311 15 5307ft 0kts
14-Jan-20 17:54 35.048841 -106.618311 15 5307ft 0kts
14-Jan-20 17:55 35.048572 -106.618679 248 5308ft 9kts
14-Jan-20 17:56 35.047177 -106.619545 174 5310ft 0kts
14-Jan-20 17:57 35.046875 -106.619540 184 5311ft 0kts
14-Jan-20 17:58 35.045936 -106.619516 152 5312ft 9kts
14-Jan-20 18:00 35.045601 -106.618160 96 5316ft 8kts
14-Jan-20 18:01 35.045838 -106.611997 89 5322ft 27kts
14-Jan-20 18:02 35.045751 -106.600252 89 5326ft 37kts
14-Jan-20 18:03 35.045789 -106.587757 90 5337ft 35kts
14-Jan-20 18:04 35.045735 -106.576998 89 5354ft 14kts
14-Jan-20 18:05 35.045342 -106.575840 149 5355ft 0kts
14-Jan-20 18:06 35.045315 -106.575821 149 5355ft 2kts
14-Jan-20 18:07 35.044192 -106.594513 270 5329ft 186kts
14-Jan-20 18:08 35.061859 -106.663046 297 8381ft 249kts
14-Jan-20 18:09 35.101144 -106.743613 298 9114ft 278kts
14-Jan-20 18:10 35.140800 -106.825038 298 8972ft 279kts
14-Jan-20 18:11 35.180751 -106.906992 298 8963ft 280kts
14-Jan-20 18:12 35.221166 -106.989638 297 10674ft 289kts
14-Jan-20 18:13 35.269256 -107.076896 315 13894ft 343kts
14-Jan-20 18:14 35.356509 -107.134785 324 17499ft 368kts
14-Jan-20 18:15 35.447436 -107.197181 323 20673ft 386kts
14-Jan-20 18:16 35.547257 -107.254514 344 23476ft 425kts
14-Jan-20 18:17 35.670728 -107.245480 355 25925ft 457kts
14-Jan-20 18:18 35.799670 -107.236006 354 28128ft 474kts
14-Jan-20 18:19 35.931729 -107.226365 353 30071ft 476kts
14-Jan-20 18:19 36.040556 -107.218414 352 30100ft 469kts
14-Jan-20 18:21 36.192556 -107.207328 352 30094ft 470kts
14-Jan-20 18:21 36.301474 -107.199364 352 30095ft 470kts
14-Jan-20 18:23 36.452960 -107.188266 352 30096ft 470kts
14-Jan-20 18:24 36.583339 -107.178697 352 30092ft 470kts
14-Jan-20 18:24 36.691945 -107.170713 352 30089ft 470kts
14-Jan-20 18:25 36.822400 -107.161110 352 30090ft 470kts
14-Jan-20 18:27 36.973263 -107.125985 23 30102ft 511kts
14-Jan-20 18:27 37.057581 -107.016637 47 30096ft 534kts
14-Jan-20 18:28 37.152318 -106.873827 44 30096ft 532kts
14-Jan-20 18:29 37.247975 -106.731517 44 30090ft 532kts
14-Jan-20 18:30 37.343412 -106.589348 44 30088ft 533kts
14-Jan-20 18:31 37.439087 -106.446632 44 30092ft 534kts
14-Jan-20 18:32 37.535087 -106.303332 45 30077ft 535kts
14-Jan-20 18:33 37.630819 -106.160226 45 30079ft 535kts
14-Jan-20 18:34 37.727140 -106.015996 45 30078ft 537kts
14-Jan-20 18:35 37.823297 -105.871849 45 30034ft 545kts
14-Jan-20 18:36 37.919833 -105.726856 44 27450ft 535kts
14-Jan-20 18:37 38.014854 -105.583977 43 23952ft 517kts
14-Jan-20 18:38 38.105044 -105.448275 44 22017ft 496kts
14-Jan-20 18:39 38.192991 -105.315779 45 20024ft 479kts
14-Jan-20 18:40 38.277288 -105.188677 45 18230ft 462kts
14-Jan-20 18:41 38.333695 -105.044698 88 17247ft 463kts
14-Jan-20 18:42 38.326080 -104.883847 97 16252ft 452kts
14-Jan-20 18:43 38.341157 -104.729944 48 15292ft 440kts
14-Jan-20 18:44 38.436937 -104.656759 7 12480ft 389kts
14-Jan-20 18:45 38.536553 -104.623629 7 10795ft 339kts
14-Jan-20 18:46 38.621391 -104.598491 2 10301ft 292kts
14-Jan-20 18:47 38.700550 -104.589317 357 9222ft 284kts
14-Jan-20 18:48 38.778440 -104.591250 352 9002ft 280kts
14-Jan-20 18:49 38.855334 -104.595419 352 8997ft 261kts
14-Jan-20 18:50 38.923974 -104.598915 346 8844ft 242kts
14-Jan-20 18:51 38.945963 -104.655462 242 8710ft 185kts
14-Jan-20 18:52 38.900463 -104.685869 186 8557ft 187kts
14-Jan-20 18:53 38.854768 -104.685684 179 7013ft 144kts
14-Jan-20 18:54 38.813167 -104.685747 180 6180ft 145kts
14-Jan-20 18:55 38.795272 -104.685767 179 6126ft 22kts
14-Jan-20 18:56 38.791338 -104.687435 275 6132ft 11kts
14-Jan-20 18:57 38.795190 -104.687870 359 6126ft 20kts
14-Jan-20 18:58 38.800488 -104.687870 0 6149ft 13kts
14-Jan-20 18:59 38.802783 -104.689794 269 6160ft 17kts
14-Jan-20 19:00 38.802634 -104.697006 228 6135ft 14kts
14-Jan-20 19:01 38.800273 -104.699164 188 6128ft 11kts

Navigation Log

Ident Type
Flight plan parsing failed, navigation log unavailable